sensor_id;sensor_type;location;lat;lon;timestamp;P1;durP1;ratioP1;P2;durP2;ratioP2
22005;SDS011;11167;46.988;15.470;2022-09-16T00:01:59;1.52;;;1.10;;
22005;SDS011;11167;46.988;15.470;2022-09-16T00:04:01;1.12;;;1.02;;
22005;SDS011;11167;46.988;15.470;2022-09-16T00:06:02;3.50;;;1.00;;
22005;SDS011;11167;46.988;15.470;2022-09-16T00:08:04;1.45;;;0.90;;
22005;SDS011;11167;46.988;15.470;2022-09-16T00:10:06;0.93;;;0.80;;
22005;SDS011;11167;46.988;15.470;2022-09-16T00:12:07;1.77;;;1.00;;
22005;SDS011;11167;46.988;15.470;2022-09-16T00:14:09;2.05;;;1.10;;
22005;SDS011;11167;46.988;15.470;2022-09-16T00:16:11;1.30;;;0.93;;
22005;SDS011;11167;46.988;15.470;2022-09-16T00:18:15;2.60;;;1.05;;
22005;SDS011;11167;46.988;15.470;2022-09-16T00:20:16;1.10;;;1.00;;
22005;SDS011;11167;46.988;15.470;2022-09-16T00:22:17;1.57;;;1.00;;
22005;SDS011;11167;46.988;15.470;2022-09-16T00:24:18;1.92;;;1.00;;
22005;SDS011;11167;46.988;15.470;2022-09-16T00:26:19;1.32;;;0.93;;
22005;SDS011;11167;46.988;15.470;2022-09-16T00:28:21;1.52;;;0.90;;
22005;SDS011;11167;46.988;15.470;2022-09-16T00:30:23;1.40;;;1.07;;
22005;SDS011;11167;46.988;15.470;2022-09-16T00:32:24;1.72;;;0.90;;
22005;SDS011;11167;46.988;15.470;2022-09-16T00:34:25;4.30;;;1.20;;
22005;SDS011;11167;46.988;15.470;2022-09-16T00:36:26;1.52;;;0.90;;
22005;SDS011;11167;46.988;15.470;2022-09-16T00:38:27;3.20;;;1.30;;
22005;SDS011;11167;46.988;15.470;2022-09-16T00:40:28;2.65;;;1.30;;
22005;SDS011;11167;46.988;15.470;2022-09-16T00:42:30;1.50;;;0.90;;
22005;SDS011;11167;46.988;15.470;2022-09-16T00:46:58;1.80;;;0.98;;
22005;SDS011;11167;46.988;15.470;2022-09-16T00:49:02;1.72;;;0.82;;
22005;SDS011;11167;46.988;15.470;2022-09-16T00:51:07;1.90;;;1.20;;
22005;SDS011;11167;46.988;15.470;2022-09-16T00:55:15;1.07;;;0.72;;
22005;SDS011;11167;46.988;15.470;2022-09-16T00:57:19;2.22;;;1.00;;
22005;SDS011;11167;46.988;15.470;2022-09-16T00:59:23;2.50;;;1.10;;
22005;SDS011;11167;46.988;15.470;2022-09-16T01:01:26;1.90;;;1.00;;
22005;SDS011;11167;46.988;15.470;2022-09-16T01:03:28;3.05;;;0.98;;
22005;SDS011;11167;46.988;15.470;2022-09-16T01:05:30;5.22;;;1.07;;
22005;SDS011;11167;46.988;15.470;2022-09-16T01:07:39;2.98;;;1.10;;
22005;SDS011;11167;46.988;15.470;2022-09-16T01:09:39;2.02;;;1.02;;
22005;SDS011;11167;46.988;15.470;2022-09-16T01:11:41;1.32;;;1.02;;
22005;SDS011;11167;46.988;15.470;2022-09-16T01:13:42;2.15;;;1.12;;
22005;SDS011;11167;46.988;15.470;2022-09-16T01:20:33;1.45;;;1.00;;
22005;SDS011;11167;46.988;15.470;2022-09-16T01:31:44;1.30;;;1.10;;
22005;SDS011;11167;46.988;15.470;2022-09-16T01:33:54;2.58;;;1.12;;
22005;SDS011;11167;46.988;15.470;2022-09-16T01:43:17;1.42;;;1.02;;
22005;SDS011;11167;46.988;15.470;2022-09-16T01:45:25;1.87;;;1.10;;
22005;SDS011;11167;46.988;15.470;2022-09-16T01:49:39;2.45;;;1.20;;
22005;SDS011;11167;46.988;15.470;2022-09-16T01:58:56;2.70;;;1.10;;
22005;SDS011;11167;46.988;15.470;2022-09-16T02:01:34;2.72;;;1.07;;
22005;SDS011;11167;46.988;15.470;2022-09-16T02:03:27;2.75;;;1.12;;
22005;SDS011;11167;46.988;15.470;2022-09-16T02:05:35;2.20;;;0.90;;
22005;SDS011;11167;46.988;15.470;2022-09-16T02:07:42;1.67;;;1.05;;
22005;SDS011;11167;46.988;15.470;2022-09-16T02:09:50;1.27;;;0.88;;
22005;SDS011;11167;46.988;15.470;2022-09-16T02:11:50;1.82;;;1.20;;
22005;SDS011;11167;46.988;15.470;2022-09-16T02:14:05;1.65;;;1.10;;
22005;SDS011;11167;46.988;15.470;2022-09-16T02:16:19;1.70;;;1.30;;
22005;SDS011;11167;46.988;15.470;2022-09-16T02:18:32;1.72;;;1.07;;
22005;SDS011;11167;46.988;15.470;2022-09-16T02:20:37;3.17;;;1.25;;
22005;SDS011;11167;46.988;15.470;2022-09-16T02:22:43;1.90;;;1.32;;
22005;SDS011;11167;46.988;15.470;2022-09-16T02:24:48;1.57;;;1.00;;
22005;SDS011;11167;46.988;15.470;2022-09-16T02:26:51;2.40;;;1.00;;
22005;SDS011;11167;46.988;15.470;2022-09-16T02:28:57;2.00;;;1.35;;
22005;SDS011;11167;46.988;15.470;2022-09-16T02:31:02;2.47;;;1.00;;
22005;SDS011;11167;46.988;15.470;2022-09-16T02:33:06;2.65;;;1.20;;
22005;SDS011;11167;46.988;15.470;2022-09-16T02:37:14;3.15;;;1.22;;
22005;SDS011;11167;46.988;15.470;2022-09-16T02:39:19;1.95;;;1.30;;
22005;SDS011;11167;46.988;15.470;2022-09-16T02:41:22;2.02;;;1.30;;
22005;SDS011;11167;46.988;15.470;2022-09-16T02:43:23;1.82;;;1.12;;
22005;SDS011;11167;46.988;15.470;2022-09-16T02:45:30;2.25;;;1.10;;
22005;SDS011;11167;46.988;15.470;2022-09-16T02:47:41;2.08;;;0.93;;
22005;SDS011;11167;46.988;15.470;2022-09-16T02:52:24;1.20;;;1.10;;
22005;SDS011;11167;46.988;15.470;2022-09-16T02:54:51;2.65;;;1.25;;
22005;SDS011;11167;46.988;15.470;2022-09-16T02:56:55;1.05;;;0.90;;
22005;SDS011;11167;46.988;15.470;2022-09-16T02:58:57;1.60;;;1.20;;
22005;SDS011;11167;46.988;15.470;2022-09-16T03:00:58;2.17;;;1.20;;
22005;SDS011;11167;46.988;15.470;2022-09-16T03:05:26;2.15;;;1.10;;
22005;SDS011;11167;46.988;15.470;2022-09-16T03:07:30;1.70;;;1.02;;
22005;SDS011;11167;46.988;15.470;2022-09-16T03:09:32;1.42;;;1.10;;
22005;SDS011;11167;46.988;15.470;2022-09-16T03:13:53;1.02;;;0.93;;
22005;SDS011;11167;46.988;15.470;2022-09-16T03:16:55;2.77;;;1.42;;
22005;SDS011;11167;46.988;15.470;2022-09-16T03:19:15;2.00;;;1.30;;
22005;SDS011;11167;46.988;15.470;2022-09-16T03:20:42;1.20;;;0.93;;
22005;SDS011;11167;46.988;15.470;2022-09-16T03:27:14;2.72;;;1.12;;
22005;SDS011;11167;46.988;15.470;2022-09-16T03:31:48;1.25;;;1.05;;
22005;SDS011;11167;46.988;15.470;2022-09-16T03:34:04;1.20;;;0.90;;
22005;SDS011;11167;46.988;15.470;2022-09-16T03:36:08;1.70;;;0.90;;
22005;SDS011;11167;46.988;15.470;2022-09-16T03:38:13;1.00;;;0.90;;
22005;SDS011;11167;46.988;15.470;2022-09-16T03:40:17;3.40;;;1.00;;
22005;SDS011;11167;46.988;15.470;2022-09-16T03:42:19;1.70;;;1.30;;
22005;SDS011;11167;46.988;15.470;2022-09-16T03:44:29;1.57;;;1.07;;
22005;SDS011;11167;46.988;15.470;2022-09-16T03:46:27;1.45;;;1.00;;
22005;SDS011;11167;46.988;15.470;2022-09-16T03:48:29;1.15;;;1.02;;
22005;SDS011;11167;46.988;15.470;2022-09-16T03:50:30;1.62;;;1.20;;
22005;SDS011;11167;46.988;15.470;2022-09-16T03:52:34;1.20;;;1.00;;
22005;SDS011;11167;46.988;15.470;2022-09-16T03:54:35;1.90;;;1.00;;
22005;SDS011;11167;46.988;15.470;2022-09-16T03:56:37;1.20;;;1.10;;
22005;SDS011;11167;46.988;15.470;2022-09-16T03:58:39;3.17;;;1.10;;
22005;SDS011;11167;46.988;15.470;2022-09-16T04:00:41;1.00;;;0.90;;
22005;SDS011;11167;46.988;15.470;2022-09-16T04:02:42;1.15;;;0.90;;
22005;SDS011;11167;46.988;15.470;2022-09-16T04:04:43;3.62;;;1.40;;
22005;SDS011;11167;46.988;15.470;2022-09-16T04:06:44;1.32;;;1.10;;
22005;SDS011;11167;46.988;15.470;2022-09-16T04:08:46;1.37;;;0.88;;
22005;SDS011;11167;46.988;15.470;2022-09-16T04:10:59;1.20;;;1.00;;
22005;SDS011;11167;46.988;15.470;2022-09-16T04:13:01;1.22;;;1.00;;
22005;SDS011;11167;46.988;15.470;2022-09-16T04:15:03;2.45;;;1.37;;
22005;SDS011;11167;46.988;15.470;2022-09-16T04:17:04;2.00;;;1.00;;
22005;SDS011;11167;46.988;15.470;2022-09-16T04:19:05;1.62;;;1.10;;
22005;SDS011;11167;46.988;15.470;2022-09-16T04:21:06;1.17;;;0.90;;
22005;SDS011;11167;46.988;15.470;2022-09-16T04:23:09;2.42;;;1.10;;
22005;SDS011;11167;46.988;15.470;2022-09-16T04:25:10;1.17;;;1.00;;
22005;SDS011;11167;46.988;15.470;2022-09-16T04:27:11;1.27;;;0.95;;
22005;SDS011;11167;46.988;15.470;2022-09-16T04:29:12;1.42;;;0.93;;
22005;SDS011;11167;46.988;15.470;2022-09-16T04:31:14;1.10;;;0.88;;
22005;SDS011;11167;46.988;15.470;2022-09-16T04:33:15;2.20;;;1.10;;
22005;SDS011;11167;46.988;15.470;2022-09-16T04:35:17;1.98;;;0.98;;
22005;SDS011;11167;46.988;15.470;2022-09-16T04:37:19;1.90;;;1.10;;
22005;SDS011;11167;46.988;15.470;2022-09-16T04:39:20;1.30;;;1.10;;
22005;SDS011;11167;46.988;15.470;2022-09-16T04:41:22;1.35;;;1.07;;
22005;SDS011;11167;46.988;15.470;2022-09-16T04:43:24;2.17;;;1.30;;
22005;SDS011;11167;46.988;15.470;2022-09-16T04:45:25;1.70;;;1.40;;
22005;SDS011;11167;46.988;15.470;2022-09-16T04:47:27;1.75;;;1.12;;
22005;SDS011;11167;46.988;15.470;2022-09-16T04:49:29;2.87;;;1.60;;
22005;SDS011;11167;46.988;15.470;2022-09-16T04:53:52;1.20;;;1.10;;
22005;SDS011;11167;46.988;15.470;2022-09-16T04:56:01;2.12;;;1.40;;
22005;SDS011;11167;46.988;15.470;2022-09-16T04:58:04;2.02;;;1.30;;
22005;SDS011;11167;46.988;15.470;2022-09-16T05:00:05;1.98;;;1.30;;
22005;SDS011;11167;46.988;15.470;2022-09-16T05:02:08;2.00;;;1.47;;
22005;SDS011;11167;46.988;15.470;2022-09-16T05:04:09;2.10;;;1.25;;
22005;SDS011;11167;46.988;15.470;2022-09-16T05:06:11;1.87;;;1.20;;
22005;SDS011;11167;46.988;15.470;2022-09-16T05:08:14;1.85;;;1.40;;
22005;SDS011;11167;46.988;15.470;2022-09-16T05:10:15;2.12;;;1.40;;
22005;SDS011;11167;46.988;15.470;2022-09-16T05:12:16;2.25;;;1.30;;
22005;SDS011;11167;46.988;15.470;2022-09-16T05:14:18;1.72;;;1.20;;
22005;SDS011;11167;46.988;15.470;2022-09-16T05:16:20;2.90;;;1.30;;
22005;SDS011;11167;46.988;15.470;2022-09-16T05:18:22;2.40;;;1.30;;
22005;SDS011;11167;46.988;15.470;2022-09-16T05:20:29;2.47;;;1.25;;
22005;SDS011;11167;46.988;15.470;2022-09-16T05:22:31;1.27;;;1.17;;
22005;SDS011;11167;46.988;15.470;2022-09-16T05:24:33;3.75;;;1.22;;
22005;SDS011;11167;46.988;15.470;2022-09-16T05:26:37;1.40;;;1.10;;
22005;SDS011;11167;46.988;15.470;2022-09-16T05:28:41;1.47;;;1.20;;
22005;SDS011;11167;46.988;15.470;2022-09-16T05:30:45;1.15;;;1.00;;
22005;SDS011;11167;46.988;15.470;2022-09-16T05:32:47;2.40;;;1.72;;
22005;SDS011;11167;46.988;15.470;2022-09-16T05:34:51;1.45;;;1.07;;
22005;SDS011;11167;46.988;15.470;2022-09-16T05:36:53;1.00;;;0.90;;
22005;SDS011;11167;46.988;15.470;2022-09-16T05:38:56;2.00;;;1.10;;
22005;SDS011;11167;46.988;15.470;2022-09-16T05:40:58;1.90;;;1.25;;
22005;SDS011;11167;46.988;15.470;2022-09-16T05:43:00;1.42;;;1.00;;
22005;SDS011;11167;46.988;15.470;2022-09-16T05:45:01;2.17;;;1.27;;
22005;SDS011;11167;46.988;15.470;2022-09-16T05:47:02;1.20;;;1.10;;
22005;SDS011;11167;46.988;15.470;2022-09-16T05:49:04;1.37;;;1.17;;
22005;SDS011;11167;46.988;15.470;2022-09-16T05:51:05;1.65;;;1.22;;
22005;SDS011;11167;46.988;15.470;2022-09-16T05:53:06;1.20;;;1.00;;
22005;SDS011;11167;46.988;15.470;2022-09-16T05:55:08;1.35;;;1.00;;
22005;SDS011;11167;46.988;15.470;2022-09-16T05:57:10;1.75;;;1.10;;
22005;SDS011;11167;46.988;15.470;2022-09-16T05:59:11;1.22;;;1.00;;
22005;SDS011;11167;46.988;15.470;2022-09-16T06:01:18;2.02;;;1.02;;
22005;SDS011;11167;46.988;15.470;2022-09-16T06:03:20;2.45;;;1.12;;
22005;SDS011;11167;46.988;15.470;2022-09-16T06:05:21;1.25;;;1.12;;
22005;SDS011;11167;46.988;15.470;2022-09-16T06:07:23;1.77;;;1.10;;
22005;SDS011;11167;46.988;15.470;2022-09-16T06:09:24;1.72;;;1.27;;
22005;SDS011;11167;46.988;15.470;2022-09-16T06:11:26;1.67;;;1.22;;
22005;SDS011;11167;46.988;15.470;2022-09-16T06:13:28;1.25;;;1.15;;
22005;SDS011;11167;46.988;15.470;2022-09-16T06:15:29;2.30;;;1.45;;
22005;SDS011;11167;46.988;15.470;2022-09-16T06:17:31;1.67;;;1.27;;
22005;SDS011;11167;46.988;15.470;2022-09-16T06:19:32;1.35;;;1.10;;
22005;SDS011;11167;46.988;15.470;2022-09-16T06:21:33;1.30;;;1.20;;
22005;SDS011;11167;46.988;15.470;2022-09-16T06:23:34;1.72;;;1.05;;
22005;SDS011;11167;46.988;15.470;2022-09-16T06:25:36;1.47;;;1.00;;
22005;SDS011;11167;46.988;15.470;2022-09-16T06:27:37;1.40;;;1.30;;
22005;SDS011;11167;46.988;15.470;2022-09-16T06:29:38;2.25;;;1.37;;
22005;SDS011;11167;46.988;15.470;2022-09-16T06:31:39;2.52;;;1.57;;
22005;SDS011;11167;46.988;15.470;2022-09-16T06:33:41;3.83;;;1.85;;
22005;SDS011;11167;46.988;15.470;2022-09-16T06:35:43;3.42;;;2.17;;
22005;SDS011;11167;46.988;15.470;2022-09-16T06:37:44;2.95;;;1.90;;
22005;SDS011;11167;46.988;15.470;2022-09-16T06:39:46;3.65;;;2.02;;
22005;SDS011;11167;46.988;15.470;2022-09-16T06:41:47;3.30;;;2.00;;
22005;SDS011;11167;46.988;15.470;2022-09-16T06:43:49;3.12;;;1.80;;
22005;SDS011;11167;46.988;15.470;2022-09-16T06:45:54;3.95;;;2.25;;
22005;SDS011;11167;46.988;15.470;2022-09-16T06:47:58;3.92;;;1.90;;
22005;SDS011;11167;46.988;15.470;2022-09-16T06:50:00;3.50;;;1.75;;
22005;SDS011;11167;46.988;15.470;2022-09-16T06:52:02;5.17;;;2.20;;
22005;SDS011;11167;46.988;15.470;2022-09-16T06:54:04;3.12;;;1.75;;
22005;SDS011;11167;46.988;15.470;2022-09-16T06:56:07;3.47;;;1.70;;
22005;SDS011;11167;46.988;15.470;2022-09-16T06:58:11;3.77;;;2.00;;
22005;SDS011;11167;46.988;15.470;2022-09-16T07:00:15;3.75;;;2.02;;
22005;SDS011;11167;46.988;15.470;2022-09-16T07:02:16;6.03;;;2.77;;
22005;SDS011;11167;46.988;15.470;2022-09-16T07:04:17;4.25;;;2.47;;
22005;SDS011;11167;46.988;15.470;2022-09-16T07:06:19;5.55;;;2.95;;
22005;SDS011;11167;46.988;15.470;2022-09-16T07:08:22;5.90;;;2.90;;
22005;SDS011;11167;46.988;15.470;2022-09-16T07:10:24;7.45;;;3.55;;
22005;SDS011;11167;46.988;15.470;2022-09-16T07:12:26;9.93;;;3.70;;
22005;SDS011;11167;46.988;15.470;2022-09-16T07:14:28;5.90;;;3.27;;
22005;SDS011;11167;46.988;15.470;2022-09-16T07:16:31;6.58;;;2.72;;
22005;SDS011;11167;46.988;15.470;2022-09-16T07:18:32;5.42;;;2.92;;
22005;SDS011;11167;46.988;15.470;2022-09-16T07:20:33;4.90;;;2.72;;
22005;SDS011;11167;46.988;15.470;2022-09-16T07:22:35;4.65;;;2.50;;
22005;SDS011;11167;46.988;15.470;2022-09-16T07:24:36;4.15;;;2.35;;
22005;SDS011;11167;46.988;15.470;2022-09-16T07:26:38;5.72;;;2.67;;
22005;SDS011;11167;46.988;15.470;2022-09-16T07:28:41;4.85;;;2.40;;
22005;SDS011;11167;46.988;15.470;2022-09-16T07:30:42;3.98;;;2.37;;
22005;SDS011;11167;46.988;15.470;2022-09-16T07:32:43;4.28;;;2.47;;
22005;SDS011;11167;46.988;15.470;2022-09-16T07:34:45;3.95;;;2.22;;
22005;SDS011;11167;46.988;15.470;2022-09-16T07:36:46;3.92;;;2.22;;
22005;SDS011;11167;46.988;15.470;2022-09-16T07:38:48;3.70;;;1.70;;
22005;SDS011;11167;46.988;15.470;2022-09-16T07:40:50;3.60;;;1.80;;
22005;SDS011;11167;46.988;15.470;2022-09-16T07:42:52;2.87;;;1.85;;
22005;SDS011;11167;46.988;15.470;2022-09-16T07:44:53;4.65;;;1.80;;
22005;SDS011;11167;46.988;15.470;2022-09-16T07:46:54;2.75;;;1.90;;
22005;SDS011;11167;46.988;15.470;2022-09-16T07:48:56;2.72;;;1.75;;
22005;SDS011;11167;46.988;15.470;2022-09-16T07:51:00;3.20;;;1.90;;
22005;SDS011;11167;46.988;15.470;2022-09-16T07:53:03;3.10;;;1.85;;
22005;SDS011;11167;46.988;15.470;2022-09-16T07:55:06;3.30;;;1.77;;
22005;SDS011;11167;46.988;15.470;2022-09-16T07:57:08;2.42;;;1.67;;
22005;SDS011;11167;46.988;15.470;2022-09-16T07:59:15;3.12;;;1.80;;
22005;SDS011;11167;46.988;15.470;2022-09-16T08:01:14;4.17;;;1.70;;
22005;SDS011;11167;46.988;15.470;2022-09-16T08:03:16;1.82;;;1.30;;
22005;SDS011;11167;46.988;15.470;2022-09-16T08:05:17;2.25;;;1.60;;
22005;SDS011;11167;46.988;15.470;2022-09-16T08:07:18;2.27;;;1.60;;
22005;SDS011;11167;46.988;15.470;2022-09-16T08:09:19;3.20;;;1.60;;
22005;SDS011;11167;46.988;15.470;2022-09-16T08:11:22;2.62;;;1.70;;
22005;SDS011;11167;46.988;15.470;2022-09-16T08:13:23;2.42;;;1.82;;
22005;SDS011;11167;46.988;15.470;2022-09-16T08:15:26;2.42;;;1.60;;
22005;SDS011;11167;46.988;15.470;2022-09-16T08:17:27;2.25;;;1.70;;
22005;SDS011;11167;46.988;15.470;2022-09-16T08:19:28;3.05;;;2.00;;
22005;SDS011;11167;46.988;15.470;2022-09-16T08:21:30;3.10;;;1.60;;
22005;SDS011;11167;46.988;15.470;2022-09-16T08:23:31;2.80;;;1.90;;
22005;SDS011;11167;46.988;15.470;2022-09-16T08:25:32;2.22;;;1.40;;
22005;SDS011;11167;46.988;15.470;2022-09-16T08:27:34;2.20;;;1.72;;
22005;SDS011;11167;46.988;15.470;2022-09-16T08:29:35;2.08;;;1.60;;
22005;SDS011;11167;46.988;15.470;2022-09-16T08:31:36;3.17;;;1.95;;
22005;SDS011;11167;46.988;15.470;2022-09-16T08:33:39;2.02;;;1.80;;
22005;SDS011;11167;46.988;15.470;2022-09-16T08:35:41;3.23;;;1.97;;
22005;SDS011;11167;46.988;15.470;2022-09-16T08:37:42;3.55;;;2.15;;
22005;SDS011;11167;46.988;15.470;2022-09-16T08:39:43;2.33;;;1.70;;
22005;SDS011;11167;46.988;15.470;2022-09-16T08:46:41;3.33;;;1.77;;
22005;SDS011;11167;46.988;15.470;2022-09-16T08:48:55;3.08;;;1.47;;
22005;SDS011;11167;46.988;15.470;2022-09-16T08:51:01;4.60;;;1.80;;
22005;SDS011;11167;46.988;15.470;2022-09-16T08:53:03;3.05;;;1.77;;
22005;SDS011;11167;46.988;15.470;2022-09-16T08:55:13;4.40;;;2.08;;
22005;SDS011;11167;46.988;15.470;2022-09-16T08:57:21;3.47;;;2.27;;
22005;SDS011;11167;46.988;15.470;2022-09-16T08:59:26;3.37;;;1.82;;
22005;SDS011;11167;46.988;15.470;2022-09-16T09:03:41;4.50;;;2.20;;
22005;SDS011;11167;46.988;15.470;2022-09-16T09:05:46;3.35;;;2.00;;
22005;SDS011;11167;46.988;15.470;2022-09-16T09:08:03;4.33;;;2.33;;
22005;SDS011;11167;46.988;15.470;2022-09-16T09:12:22;5.20;;;2.25;;
22005;SDS011;11167;46.988;15.470;2022-09-16T09:14:37;4.80;;;2.42;;
22005;SDS011;11167;46.988;15.470;2022-09-16T09:16:52;4.25;;;2.50;;
22005;SDS011;11167;46.988;15.470;2022-09-16T09:21:25;4.25;;;2.70;;
22005;SDS011;11167;46.988;15.470;2022-09-16T09:31:02;3.77;;;2.60;;
22005;SDS011;11167;46.988;15.470;2022-09-16T09:38:01;4.50;;;2.70;;
22005;SDS011;11167;46.988;15.470;2022-09-16T09:42:29;4.72;;;2.45;;
22005;SDS011;11167;46.988;15.470;2022-09-16T09:46:51;4.58;;;2.35;;
22005;SDS011;11167;46.988;15.470;2022-09-16T09:51:33;4.30;;;2.45;;
22005;SDS011;11167;46.988;15.470;2022-09-16T09:53:40;5.28;;;2.40;;
22005;SDS011;11167;46.988;15.470;2022-09-16T09:55:45;5.55;;;2.95;;
22005;SDS011;11167;46.988;15.470;2022-09-16T09:58:00;4.03;;;2.12;;
22005;SDS011;11167;46.988;15.470;2022-09-16T10:00:21;4.70;;;2.33;;
22005;SDS011;11167;46.988;15.470;2022-09-16T10:02:22;3.77;;;2.12;;
22005;SDS011;11167;46.988;15.470;2022-09-16T10:04:25;3.77;;;1.95;;
22005;SDS011;11167;46.988;15.470;2022-09-16T10:10:55;3.47;;;2.00;;
22005;SDS011;11167;46.988;15.470;2022-09-16T10:13:06;5.55;;;2.25;;
22005;SDS011;11167;46.988;15.470;2022-09-16T10:15:27;3.70;;;2.20;;
22005;SDS011;11167;46.988;15.470;2022-09-16T10:17:30;3.83;;;2.05;;
22005;SDS011;11167;46.988;15.470;2022-09-16T10:19:37;3.80;;;2.25;;
22005;SDS011;11167;46.988;15.470;2022-09-16T10:24:51;2.92;;;2.10;;
22005;SDS011;11167;46.988;15.470;2022-09-16T10:26:38;3.75;;;1.90;;
22005;SDS011;11167;46.988;15.470;2022-09-16T10:30:44;3.22;;;2.00;;
22005;SDS011;11167;46.988;15.470;2022-09-16T10:35:05;3.00;;;2.20;;
22005;SDS011;11167;46.988;15.470;2022-09-16T10:39:20;4.50;;;2.00;;
22005;SDS011;11167;46.988;15.470;2022-09-16T10:43:25;6.58;;;2.25;;
22005;SDS011;11167;46.988;15.470;2022-09-16T10:45:29;6.62;;;2.62;;
22005;SDS011;11167;46.988;15.470;2022-09-16T10:49:45;3.00;;;1.85;;
22005;SDS011;11167;46.988;15.470;2022-09-16T10:51:51;3.20;;;1.92;;
22005;SDS011;11167;46.988;15.470;2022-09-16T10:53:53;3.67;;;2.00;;
22005;SDS011;11167;46.988;15.470;2022-09-16T10:55:58;3.15;;;1.70;;
22005;SDS011;11167;46.988;15.470;2022-09-16T10:58:08;3.52;;;2.15;;
22005;SDS011;11167;46.988;15.470;2022-09-16T11:00:15;5.42;;;2.15;;
22005;SDS011;11167;46.988;15.470;2022-09-16T11:02:36;4.83;;;2.33;;
22005;SDS011;11167;46.988;15.470;2022-09-16T11:05:23;5.00;;;2.52;;
22005;SDS011;11167;46.988;15.470;2022-09-16T11:07:58;7.53;;;2.72;;
22005;SDS011;11167;46.988;15.470;2022-09-16T11:09:40;8.55;;;3.45;;
22005;SDS011;11167;46.988;15.470;2022-09-16T11:11:58;5.90;;;3.02;;
22005;SDS011;11167;46.988;15.470;2022-09-16T11:14:51;8.55;;;3.42;;
22005;SDS011;11167;46.988;15.470;2022-09-16T11:30:44;5.62;;;2.90;;
22005;SDS011;11167;46.988;15.470;2022-09-16T11:42:41;4.67;;;2.40;;
22005;SDS011;11167;46.988;15.470;2022-09-16T12:00:33;2.92;;;1.98;;
22005;SDS011;11167;46.988;15.470;2022-09-16T12:04:47;4.22;;;2.47;;
22005;SDS011;11167;46.988;15.470;2022-09-16T12:07:08;3.65;;;2.15;;
22005;SDS011;11167;46.988;15.470;2022-09-16T12:09:15;3.90;;;2.27;;
22005;SDS011;11167;46.988;15.470;2022-09-16T12:11:25;3.55;;;2.30;;
22005;SDS011;11167;46.988;15.470;2022-09-16T12:13:34;4.35;;;2.27;;
22005;SDS011;11167;46.988;15.470;2022-09-16T12:15:39;3.55;;;2.25;;
22005;SDS011;11167;46.988;15.470;2022-09-16T12:17:56;3.37;;;2.22;;
22005;SDS011;11167;46.988;15.470;2022-09-16T12:24:38;3.60;;;1.82;;
22005;SDS011;11167;46.988;15.470;2022-09-16T12:27:00;3.90;;;2.12;;
22005;SDS011;11167;46.988;15.470;2022-09-16T12:29:24;5.58;;;2.85;;
22005;SDS011;11167;46.988;15.470;2022-09-16T12:31:31;5.17;;;2.55;;
22005;SDS011;11167;46.988;15.470;2022-09-16T12:33:43;5.07;;;2.40;;
22005;SDS011;11167;46.988;15.470;2022-09-16T12:35:54;4.78;;;2.52;;
22005;SDS011;11167;46.988;15.470;2022-09-16T12:38:16;5.90;;;2.90;;
22005;SDS011;11167;46.988;15.470;2022-09-16T12:40:26;6.20;;;2.80;;
22005;SDS011;11167;46.988;15.470;2022-09-16T12:43:06;5.83;;;2.75;;
22005;SDS011;11167;46.988;15.470;2022-09-16T12:47:10;5.55;;;2.87;;
22005;SDS011;11167;46.988;15.470;2022-09-16T12:49:24;4.90;;;2.65;;
22005;SDS011;11167;46.988;15.470;2022-09-16T12:53:54;4.87;;;2.67;;
22005;SDS011;11167;46.988;15.470;2022-09-16T12:58:37;4.50;;;2.45;;
22005;SDS011;11167;46.988;15.470;2022-09-16T13:01:05;3.80;;;2.25;;
22005;SDS011;11167;46.988;15.470;2022-09-16T13:03:17;3.17;;;2.22;;
22005;SDS011;11167;46.988;15.470;2022-09-16T13:05:17;5.10;;;2.50;;
22005;SDS011;11167;46.988;15.470;2022-09-16T13:07:32;5.12;;;2.45;;
22005;SDS011;11167;46.988;15.470;2022-09-16T13:09:34;2.72;;;1.80;;
22005;SDS011;11167;46.988;15.470;2022-09-16T13:11:38;3.20;;;2.00;;
22005;SDS011;11167;46.988;15.470;2022-09-16T13:13:41;2.90;;;1.90;;
22005;SDS011;11167;46.988;15.470;2022-09-16T13:15:53;2.35;;;1.67;;
22005;SDS011;11167;46.988;15.470;2022-09-16T13:17:49;2.10;;;1.70;;
22005;SDS011;11167;46.988;15.470;2022-09-16T13:19:52;2.72;;;1.82;;
22005;SDS011;11167;46.988;15.470;2022-09-16T13:22:16;3.47;;;1.82;;
22005;SDS011;11167;46.988;15.470;2022-09-16T13:24:11;2.58;;;1.67;;
22005;SDS011;11167;46.988;15.470;2022-09-16T13:26:38;2.72;;;1.60;;
22005;SDS011;11167;46.988;15.470;2022-09-16T13:28:41;2.05;;;1.40;;
22005;SDS011;11167;46.988;15.470;2022-09-16T13:30:44;2.40;;;1.70;;
22005;SDS011;11167;46.988;15.470;2022-09-16T13:34:59;3.50;;;2.40;;
22005;SDS011;11167;46.988;15.470;2022-09-16T13:37:14;2.67;;;1.75;;
22005;SDS011;11167;46.988;15.470;2022-09-16T13:39:26;3.00;;;2.00;;
22005;SDS011;11167;46.988;15.470;2022-09-16T13:41:44;3.10;;;1.90;;
22005;SDS011;11167;46.988;15.470;2022-09-16T13:45:59;4.30;;;2.22;;
22005;SDS011;11167;46.988;15.470;2022-09-16T13:47:55;3.67;;;2.35;;
22005;SDS011;11167;46.988;15.470;2022-09-16T13:50:14;4.30;;;2.47;;
22005;SDS011;11167;46.988;15.470;2022-09-16T13:52:19;3.45;;;2.40;;
22005;SDS011;11167;46.988;15.470;2022-09-16T13:54:38;3.92;;;2.50;;
22005;SDS011;11167;46.988;15.470;2022-09-16T14:13:22;5.50;;;3.55;;
22005;SDS011;11167;46.988;15.470;2022-09-16T14:15:24;5.65;;;3.98;;
22005;SDS011;11167;46.988;15.470;2022-09-16T14:17:27;6.40;;;3.92;;
22005;SDS011;11167;46.988;15.470;2022-09-16T14:19:35;4.42;;;2.98;;
22005;SDS011;11167;46.988;15.470;2022-09-16T14:21:40;5.05;;;3.25;;
22005;SDS011;11167;46.988;15.470;2022-09-16T14:23:41;6.10;;;3.25;;
22005;SDS011;11167;46.988;15.470;2022-09-16T14:25:42;5.95;;;3.22;;
22005;SDS011;11167;46.988;15.470;2022-09-16T14:27:44;7.22;;;3.15;;
22005;SDS011;11167;46.988;15.470;2022-09-16T14:29:54;5.55;;;2.70;;
22005;SDS011;11167;46.988;15.470;2022-09-16T14:31:57;5.00;;;2.58;;
22005;SDS011;11167;46.988;15.470;2022-09-16T14:34:00;4.83;;;2.47;;
22005;SDS011;11167;46.988;15.470;2022-09-16T14:36:16;4.62;;;2.83;;
22005;SDS011;11167;46.988;15.470;2022-09-16T14:38:43;4.62;;;2.35;;
22005;SDS011;11167;46.988;15.470;2022-09-16T14:40:37;4.58;;;2.33;;
22005;SDS011;11167;46.988;15.470;2022-09-16T14:42:47;3.12;;;2.10;;
22005;SDS011;11167;46.988;15.470;2022-09-16T14:44:51;4.45;;;2.17;;
22005;SDS011;11167;46.988;15.470;2022-09-16T14:49:15;3.83;;;2.10;;
22005;SDS011;11167;46.988;15.470;2022-09-16T14:51:20;3.60;;;2.20;;
22005;SDS011;11167;46.988;15.470;2022-09-16T14:53:28;4.05;;;2.15;;
22005;SDS011;11167;46.988;15.470;2022-09-16T14:55:32;4.00;;;1.90;;
22005;SDS011;11167;46.988;15.470;2022-09-16T14:57:37;3.83;;;1.92;;
22005;SDS011;11167;46.988;15.470;2022-09-16T14:59:40;3.92;;;1.82;;
22005;SDS011;11167;46.988;15.470;2022-09-16T15:01:42;3.35;;;1.47;;
22005;SDS011;11167;46.988;15.470;2022-09-16T15:05:48;3.55;;;1.80;;
22005;SDS011;11167;46.988;15.470;2022-09-16T15:07:52;3.00;;;2.10;;
22005;SDS011;11167;46.988;15.470;2022-09-16T15:09:58;3.52;;;1.80;;
22005;SDS011;11167;46.988;15.470;2022-09-16T15:12:01;3.90;;;1.72;;
22005;SDS011;11167;46.988;15.470;2022-09-16T15:14:06;3.33;;;1.90;;
22005;SDS011;11167;46.988;15.470;2022-09-16T15:16:10;2.92;;;1.65;;
22005;SDS011;11167;46.988;15.470;2022-09-16T15:18:22;4.28;;;2.12;;
22005;SDS011;11167;46.988;15.470;2022-09-16T15:20:27;4.72;;;2.12;;
22005;SDS011;11167;46.988;15.470;2022-09-16T15:22:32;6.05;;;2.45;;
22005;SDS011;11167;46.988;15.470;2022-09-16T15:24:35;4.03;;;2.10;;